sensor_id;sensor_type;location;lat;lon;timestamp;P1;durP1;ratioP1;P2;durP2;ratioP2
20772;SDS011;10546;50.674;4.616;2023-01-23T00:01:19;60.60;;;23.20;;
20772;SDS011;10546;50.674;4.616;2023-01-23T00:03:49;64.00;;;23.07;;
20772;SDS011;10546;50.674;4.616;2023-01-23T00:06:15;55.83;;;21.70;;
20772;SDS011;10546;50.674;4.616;2023-01-23T00:08:42;60.40;;;22.80;;
20772;SDS011;10546;50.674;4.616;2023-01-23T00:11:11;59.40;;;21.70;;
20772;SDS011;10546;50.674;4.616;2023-01-23T00:13:38;65.87;;;23.83;;
20772;SDS011;10546;50.674;4.616;2023-01-23T06:51:33;122.00;;;31.03;;
20772;SDS011;10546;50.674;4.616;2023-01-23T06:53:59;128.83;;;30.17;;
20772;SDS011;10546;50.674;4.616;2023-01-23T06:56:26;145.50;;;30.30;;
20772;SDS011;10546;50.674;4.616;2023-01-23T06:58:51;137.43;;;34.00;;
20772;SDS011;10546;50.674;4.616;2023-01-23T07:01:17;135.97;;;33.10;;
20772;SDS011;10546;50.674;4.616;2023-01-23T07:03:43;118.27;;;28.43;;
20772;SDS011;10546;50.674;4.616;2023-01-23T07:06:09;118.37;;;29.80;;
20772;SDS011;10546;50.674;4.616;2023-01-23T07:08:36;148.83;;;32.33;;
20772;SDS011;10546;50.674;4.616;2023-01-23T07:11:02;184.50;;;41.70;;
20772;SDS011;10546;50.674;4.616;2023-01-23T07:13:28;188.80;;;34.57;;
20772;SDS011;10546;50.674;4.616;2023-01-23T07:15:54;139.87;;;33.23;;
20772;SDS011;10546;50.674;4.616;2023-01-23T07:18:20;142.80;;;35.23;;
20772;SDS011;10546;50.674;4.616;2023-01-23T07:20:46;124.90;;;34.00;;
20772;SDS011;10546;50.674;4.616;2023-01-23T07:23:13;147.13;;;33.90;;
20772;SDS011;10546;50.674;4.616;2023-01-23T07:25:39;133.63;;;33.67;;
20772;SDS011;10546;50.674;4.616;2023-01-23T07:28:05;132.03;;;35.63;;
20772;SDS011;10546;50.674;4.616;2023-01-23T07:30:31;135.70;;;35.47;;
20772;SDS011;10546;50.674;4.616;2023-01-23T07:32:57;143.17;;;34.97;;
20772;SDS011;10546;50.674;4.616;2023-01-23T07:35:23;142.67;;;37.70;;
20772;SDS011;10546;50.674;4.616;2023-01-23T07:37:49;137.77;;;34.23;;
20772;SDS011;10546;50.674;4.616;2023-01-23T07:40:14;139.00;;;36.00;;
20772;SDS011;10546;50.674;4.616;2023-01-23T07:42:40;113.83;;;32.47;;
20772;SDS011;10546;50.674;4.616;2023-01-23T07:45:07;121.87;;;32.80;;
20772;SDS011;10546;50.674;4.616;2023-01-23T07:47:34;126.70;;;33.03;;
20772;SDS011;10546;50.674;4.616;2023-01-23T07:50:09;109.53;;;30.93;;
20772;SDS011;10546;50.674;4.616;2023-01-23T07:52:36;125.90;;;35.97;;
20772;SDS011;10546;50.674;4.616;2023-01-23T07:55:02;135.23;;;35.33;;
20772;SDS011;10546;50.674;4.616;2023-01-23T07:57:28;121.23;;;31.07;;
20772;SDS011;10546;50.674;4.616;2023-01-23T07:59:54;117.63;;;32.37;;
20772;SDS011;10546;50.674;4.616;2023-01-23T08:02:20;140.67;;;35.63;;
20772;SDS011;10546;50.674;4.616;2023-01-23T08:04:46;136.90;;;35.80;;
20772;SDS011;10546;50.674;4.616;2023-01-23T08:07:12;122.47;;;34.90;;
20772;SDS011;10546;50.674;4.616;2023-01-23T08:09:37;128.93;;;36.13;;
20772;SDS011;10546;50.674;4.616;2023-01-23T08:12:03;123.27;;;33.77;;
20772;SDS011;10546;50.674;4.616;2023-01-23T08:14:29;119.27;;;34.37;;
20772;SDS011;10546;50.674;4.616;2023-01-23T08:16:55;117.83;;;33.60;;
20772;SDS011;10546;50.674;4.616;2023-01-23T08:19:21;129.67;;;34.67;;
20772;SDS011;10546;50.674;4.616;2023-01-23T08:21:49;104.13;;;29.53;;
20772;SDS011;10546;50.674;4.616;2023-01-23T08:24:15;125.90;;;34.90;;
20772;SDS011;10546;50.674;4.616;2023-01-23T08:26:41;128.97;;;38.73;;
20772;SDS011;10546;50.674;4.616;2023-01-23T08:29:07;120.57;;;34.30;;
20772;SDS011;10546;50.674;4.616;2023-01-23T08:31:33;111.37;;;29.50;;
20772;SDS011;10546;50.674;4.616;2023-01-23T08:34:00;133.80;;;38.00;;
20772;SDS011;10546;50.674;4.616;2023-01-23T08:36:25;130.80;;;39.33;;
20772;SDS011;10546;50.674;4.616;2023-01-23T08:38:51;132.80;;;41.10;;
20772;SDS011;10546;50.674;4.616;2023-01-23T08:41:17;127.77;;;34.47;;
20772;SDS011;10546;50.674;4.616;2023-01-23T08:43:42;87.23;;;26.07;;
20772;SDS011;10546;50.674;4.616;2023-01-23T08:46:08;132.10;;;40.93;;
20772;SDS011;10546;50.674;4.616;2023-01-23T08:48:35;107.10;;;32.90;;
20772;SDS011;10546;50.674;4.616;2023-01-23T08:51:02;127.37;;;37.60;;
20772;SDS011;10546;50.674;4.616;2023-01-23T08:53:33;122.53;;;35.47;;
20772;SDS011;10546;50.674;4.616;2023-01-23T08:56:00;104.57;;;34.20;;
20772;SDS011;10546;50.674;4.616;2023-01-23T08:58:27;116.07;;;34.70;;
20772;SDS011;10546;50.674;4.616;2023-01-23T09:00:53;127.93;;;39.10;;
20772;SDS011;10546;50.674;4.616;2023-01-23T09:03:19;106.07;;;33.00;;
20772;SDS011;10546;50.674;4.616;2023-01-23T09:05:44;129.87;;;37.23;;
20772;SDS011;10546;50.674;4.616;2023-01-23T09:08:10;125.77;;;38.53;;
20772;SDS011;10546;50.674;4.616;2023-01-23T09:10:36;123.50;;;40.07;;
20772;SDS011;10546;50.674;4.616;2023-01-23T09:13:02;116.50;;;32.63;;
20772;SDS011;10546;50.674;4.616;2023-01-23T09:15:28;119.67;;;35.03;;
20772;SDS011;10546;50.674;4.616;2023-01-23T09:17:54;89.67;;;27.43;;
20772;SDS011;10546;50.674;4.616;2023-01-23T09:20:19;122.80;;;37.27;;
20772;SDS011;10546;50.674;4.616;2023-01-23T09:22:45;112.47;;;35.00;;
20772;SDS011;10546;50.674;4.616;2023-01-23T09:25:11;114.10;;;33.10;;
20772;SDS011;10546;50.674;4.616;2023-01-23T09:27:38;111.00;;;33.27;;
20772;SDS011;10546;50.674;4.616;2023-01-23T09:30:04;106.33;;;30.43;;
20772;SDS011;10546;50.674;4.616;2023-01-23T09:32:30;111.07;;;33.13;;
20772;SDS011;10546;50.674;4.616;2023-01-23T09:34:55;106.43;;;32.80;;
20772;SDS011;10546;50.674;4.616;2023-01-23T09:37:21;105.93;;;32.90;;
20772;SDS011;10546;50.674;4.616;2023-01-23T09:39:47;111.90;;;32.97;;
20772;SDS011;10546;50.674;4.616;2023-01-23T09:42:27;96.57;;;30.70;;
20772;SDS011;10546;50.674;4.616;2023-01-23T09:44:59;94.30;;;31.93;;
20772;SDS011;10546;50.674;4.616;2023-01-23T09:47:34;90.73;;;31.83;;
20772;SDS011;10546;50.674;4.616;2023-01-23T09:50:35;85.03;;;26.33;;
20772;SDS011;10546;50.674;4.616;2023-01-23T09:53:05;96.23;;;33.33;;
20772;SDS011;10546;50.674;4.616;2023-01-23T09:55:47;97.30;;;31.97;;
20772;SDS011;10546;50.674;4.616;2023-01-23T09:58:18;92.60;;;31.30;;
20772;SDS011;10546;50.674;4.616;2023-01-23T10:00:51;93.47;;;32.60;;
20772;SDS011;10546;50.674;4.616;2023-01-23T10:03:17;97.07;;;32.40;;
20772;SDS011;10546;50.674;4.616;2023-01-23T10:18:52;93.83;;;32.37;;
20772;SDS011;10546;50.674;4.616;2023-01-23T10:21:31;87.83;;;31.00;;
20772;SDS011;10546;50.674;4.616;2023-01-23T10:26:45;91.87;;;30.27;;
20772;SDS011;10546;50.674;4.616;2023-01-23T10:29:33;83.23;;;30.13;;
20772;SDS011;10546;50.674;4.616;2023-01-23T10:32:02;84.87;;;29.53;;
20772;SDS011;10546;50.674;4.616;2023-01-23T10:34:34;77.73;;;26.37;;
20772;SDS011;10546;50.674;4.616;2023-01-23T10:42:39;79.27;;;29.23;;
20772;SDS011;10546;50.674;4.616;2023-01-23T10:45:05;83.83;;;29.60;;
20772;SDS011;10546;50.674;4.616;2023-01-23T10:47:41;81.07;;;29.70;;
20772;SDS011;10546;50.674;4.616;2023-01-23T10:50:09;79.10;;;29.73;;
20772;SDS011;10546;50.674;4.616;2023-01-23T10:55:01;74.00;;;26.07;;
20772;SDS011;10546;50.674;4.616;2023-01-23T10:57:33;95.53;;;31.47;;
20772;SDS011;10546;50.674;4.616;2023-01-23T11:00:19;79.07;;;29.60;;
20772;SDS011;10546;50.674;4.616;2023-01-23T11:02:48;83.97;;;30.13;;
20772;SDS011;10546;50.674;4.616;2023-01-23T11:05:34;90.03;;;31.93;;
20772;SDS011;10546;50.674;4.616;2023-01-23T11:08:17;83.97;;;29.63;;
20772;SDS011;10546;50.674;4.616;2023-01-23T11:10:49;82.13;;;32.33;;
20772;SDS011;10546;50.674;4.616;2023-01-23T11:13:25;84.37;;;32.97;;
20772;SDS011;10546;50.674;4.616;2023-01-23T11:15:54;83.97;;;30.77;;
20772;SDS011;10546;50.674;4.616;2023-01-23T11:18:24;86.77;;;30.43;;
20772;SDS011;10546;50.674;4.616;2023-01-23T11:20:56;81.23;;;28.40;;
20772;SDS011;10546;50.674;4.616;2023-01-23T11:23:21;93.13;;;33.03;;
20772;SDS011;10546;50.674;4.616;2023-01-23T11:25:48;95.77;;;32.20;;
20772;SDS011;10546;50.674;4.616;2023-01-23T11:28:20;87.27;;;31.33;;
20772;SDS011;10546;50.674;4.616;2023-01-23T11:33:40;83.60;;;32.77;;
20772;SDS011;10546;50.674;4.616;2023-01-23T11:38:48;91.63;;;32.13;;
20772;SDS011;10546;50.674;4.616;2023-01-23T11:41:18;85.03;;;32.20;;
20772;SDS011;10546;50.674;4.616;2023-01-23T11:43:44;79.40;;;27.73;;
20772;SDS011;10546;50.674;4.616;2023-01-23T11:51:31;81.77;;;29.93;;
20772;SDS011;10546;50.674;4.616;2023-01-23T12:00:15;71.40;;;28.50;;
20772;SDS011;10546;50.674;4.616;2023-01-23T12:05:23;82.83;;;30.90;;
20772;SDS011;10546;50.674;4.616;2023-01-23T12:08:10;75.60;;;30.57;;
20772;SDS011;10546;50.674;4.616;2023-01-23T12:11:26;81.20;;;30.20;;
20772;SDS011;10546;50.674;4.616;2023-01-23T12:21:32;79.10;;;31.90;;
20772;SDS011;10546;50.674;4.616;2023-01-23T12:38:22;72.70;;;27.70;;
20772;SDS011;10546;50.674;4.616;2023-01-23T12:41:01;87.20;;;33.87;;
20772;SDS011;10546;50.674;4.616;2023-01-23T12:46:29;82.30;;;31.43;;
20772;SDS011;10546;50.674;4.616;2023-01-23T12:49:17;74.17;;;30.97;;
20772;SDS011;10546;50.674;4.616;2023-01-23T12:54:42;71.57;;;29.27;;
20772;SDS011;10546;50.674;4.616;2023-01-23T12:57:14;69.97;;;28.20;;
20772;SDS011;10546;50.674;4.616;2023-01-23T13:00:05;69.40;;;27.33;;
20772;SDS011;10546;50.674;4.616;2023-01-23T13:02:55;81.20;;;29.13;;
20772;SDS011;10546;50.674;4.616;2023-01-23T13:08:39;68.93;;;27.27;;
20772;SDS011;10546;50.674;4.616;2023-01-23T13:11:25;79.30;;;29.80;;
20772;SDS011;10546;50.674;4.616;2023-01-23T13:14:23;69.77;;;28.13;;
20772;SDS011;10546;50.674;4.616;2023-01-23T13:17:24;78.20;;;31.60;;
20772;SDS011;10546;50.674;4.616;2023-01-23T13:20:08;70.53;;;26.70;;
20772;SDS011;10546;50.674;4.616;2023-01-23T13:25:46;64.87;;;28.60;;
20772;SDS011;10546;50.674;4.616;2023-01-23T13:28:33;66.70;;;24.17;;
20772;SDS011;10546;50.674;4.616;2023-01-23T13:31:01;65.00;;;27.67;;
20772;SDS011;10546;50.674;4.616;2023-01-23T13:35:53;56.23;;;23.17;;
20772;SDS011;10546;50.674;4.616;2023-01-23T13:52:23;66.80;;;27.60;;
20772;SDS011;10546;50.674;4.616;2023-01-23T13:58:05;68.40;;;26.47;;
20772;SDS011;10546;50.674;4.616;2023-01-23T14:00:33;74.97;;;30.97;;
20772;SDS011;10546;50.674;4.616;2023-01-23T14:06:05;66.67;;;28.13;;
20772;SDS011;10546;50.674;4.616;2023-01-23T14:08:49;74.90;;;30.43;;
20772;SDS011;10546;50.674;4.616;2023-01-23T14:11:16;60.00;;;24.00;;
20772;SDS011;10546;50.674;4.616;2023-01-23T14:13:50;67.87;;;27.67;;
20772;SDS011;10546;50.674;4.616;2023-01-23T14:16:40;68.10;;;28.70;;
20772;SDS011;10546;50.674;4.616;2023-01-23T14:19:24;67.90;;;26.23;;
20772;SDS011;10546;50.674;4.616;2023-01-23T14:21:55;67.77;;;28.10;;
20772;SDS011;10546;50.674;4.616;2023-01-23T14:24:24;60.50;;;25.70;;
20772;SDS011;10546;50.674;4.616;2023-01-23T14:26:57;58.40;;;23.20;;
20772;SDS011;10546;50.674;4.616;2023-01-23T14:29:25;69.00;;;27.93;;
20772;SDS011;10546;50.674;4.616;2023-01-23T14:31:51;62.13;;;25.00;;
20772;SDS011;10546;50.674;4.616;2023-01-23T14:34:19;64.87;;;27.10;;
20772;SDS011;10546;50.674;4.616;2023-01-23T14:36:50;67.23;;;26.20;;
20772;SDS011;10546;50.674;4.616;2023-01-23T14:39:31;49.53;;;21.90;;
20772;SDS011;10546;50.674;4.616;2023-01-23T14:41:59;58.33;;;25.03;;
20772;SDS011;10546;50.674;4.616;2023-01-23T14:44:45;63.30;;;25.93;;
20772;SDS011;10546;50.674;4.616;2023-01-23T14:47:15;62.43;;;24.53;;
20772;SDS011;10546;50.674;4.616;2023-01-23T14:49:47;49.77;;;21.73;;
20772;SDS011;10546;50.674;4.616;2023-01-23T14:52:55;62.10;;;26.50;;
20772;SDS011;10546;50.674;4.616;2023-01-23T14:55:17;55.50;;;23.87;;
20772;SDS011;10546;50.674;4.616;2023-01-23T14:57:48;65.90;;;26.20;;
20772;SDS011;10546;50.674;4.616;2023-01-23T15:00:16;60.27;;;25.17;;
20772;SDS011;10546;50.674;4.616;2023-01-23T15:02:46;50.00;;;21.70;;
20772;SDS011;10546;50.674;4.616;2023-01-23T15:05:18;57.80;;;23.90;;
20772;SDS011;10546;50.674;4.616;2023-01-23T15:07:59;54.53;;;23.13;;
20772;SDS011;10546;50.674;4.616;2023-01-23T15:13:06;39.53;;;17.87;;
20772;SDS011;10546;50.674;4.616;2023-01-23T15:15:59;33.23;;;15.30;;
20772;SDS011;10546;50.674;4.616;2023-01-23T15:18:27;43.03;;;18.17;;
20772;SDS011;10546;50.674;4.616;2023-01-23T15:20:58;42.87;;;17.83;;
20772;SDS011;10546;50.674;4.616;2023-01-23T15:23:29;24.57;;;11.07;;
20772;SDS011;10546;50.674;4.616;2023-01-23T15:26:10;23.40;;;11.13;;
20772;SDS011;10546;50.674;4.616;2023-01-23T15:36:41;28.40;;;12.03;;
20772;SDS011;10546;50.674;4.616;2023-01-23T15:39:17;35.30;;;14.57;;
20772;SDS011;10546;50.674;4.616;2023-01-23T15:41:54;20.40;;;9.50;;
20772;SDS011;10546;50.674;4.616;2023-01-23T15:44:21;37.50;;;15.77;;
20772;SDS011;10546;50.674;4.616;2023-01-23T15:46:47;27.97;;;13.17;;
20772;SDS011;10546;50.674;4.616;2023-01-23T15:49:13;18.53;;;9.67;;
20772;SDS011;10546;50.674;4.616;2023-01-23T15:51:39;35.83;;;15.03;;
20772;SDS011;10546;50.674;4.616;2023-01-23T15:54:05;31.93;;;15.13;;
20772;SDS011;10546;50.674;4.616;2023-01-23T15:56:36;25.87;;;11.67;;
20772;SDS011;10546;50.674;4.616;2023-01-23T15:59:07;34.23;;;15.67;;
20772;SDS011;10546;50.674;4.616;2023-01-23T16:01:37;25.37;;;11.63;;
20772;SDS011;10546;50.674;4.616;2023-01-23T16:04:03;31.97;;;14.23;;
20772;SDS011;10546;50.674;4.616;2023-01-23T16:06:29;34.83;;;16.47;;
20772;SDS011;10546;50.674;4.616;2023-01-23T16:08:54;29.73;;;12.43;;
20772;SDS011;10546;50.674;4.616;2023-01-23T16:11:20;32.73;;;15.63;;
20772;SDS011;10546;50.674;4.616;2023-01-23T16:13:45;29.27;;;13.13;;
20772;SDS011;10546;50.674;4.616;2023-01-23T16:16:12;26.60;;;12.17;;
20772;SDS011;10546;50.674;4.616;2023-01-23T16:18:39;40.30;;;16.23;;
20772;SDS011;10546;50.674;4.616;2023-01-23T16:21:04;33.53;;;14.67;;
20772;SDS011;10546;50.674;4.616;2023-01-23T16:23:30;36.27;;;14.57;;
20772;SDS011;10546;50.674;4.616;2023-01-23T16:25:57;32.27;;;13.37;;
20772;SDS011;10546;50.674;4.616;2023-01-23T16:28:24;32.10;;;13.77;;
20772;SDS011;10546;50.674;4.616;2023-01-23T16:30:50;32.80;;;15.03;;
20772;SDS011;10546;50.674;4.616;2023-01-23T16:33:17;37.87;;;17.70;;
20772;SDS011;10546;50.674;4.616;2023-01-23T16:35:43;51.67;;;19.67;;
20772;SDS011;10546;50.674;4.616;2023-01-23T16:38:20;25.63;;;11.93;;
20772;SDS011;10546;50.674;4.616;2023-01-23T16:40:51;30.00;;;14.17;;
20772;SDS011;10546;50.674;4.616;2023-01-23T16:43:18;39.20;;;17.73;;
20772;SDS011;10546;50.674;4.616;2023-01-23T16:45:51;31.13;;;14.47;;
20772;SDS011;10546;50.674;4.616;2023-01-23T16:48:20;34.53;;;15.00;;
20772;SDS011;10546;50.674;4.616;2023-01-23T16:50:47;51.03;;;25.37;;
20772;SDS011;10546;50.674;4.616;2023-01-23T16:53:19;41.03;;;19.40;;
20772;SDS011;10546;50.674;4.616;2023-01-23T16:55:52;41.87;;;17.20;;
20772;SDS011;10546;50.674;4.616;2023-01-23T16:58:20;35.70;;;15.60;;
20772;SDS011;10546;50.674;4.616;2023-01-23T17:00:57;33.37;;;16.30;;
20772;SDS011;10546;50.674;4.616;2023-01-23T17:03:28;36.83;;;15.73;;
20772;SDS011;10546;50.674;4.616;2023-01-23T17:05:56;30.17;;;12.37;;
20772;SDS011;10546;50.674;4.616;2023-01-23T17:08:22;31.87;;;14.90;;
20772;SDS011;10546;50.674;4.616;2023-01-23T17:10:51;29.43;;;13.63;;
20772;SDS011;10546;50.674;4.616;2023-01-23T17:13:20;26.57;;;12.63;;
20772;SDS011;10546;50.674;4.616;2023-01-23T17:15:50;33.57;;;15.80;;
20772;SDS011;10546;50.674;4.616;2023-01-23T17:18:28;29.70;;;13.97;;
20772;SDS011;10546;50.674;4.616;2023-01-23T17:20:59;34.63;;;17.10;;
20772;SDS011;10546;50.674;4.616;2023-01-23T17:23:27;36.17;;;16.67;;
20772;SDS011;10546;50.674;4.616;2023-01-23T17:25:52;32.87;;;16.27;;
20772;SDS011;10546;50.674;4.616;2023-01-23T17:28:18;31.47;;;15.27;;
20772;SDS011;10546;50.674;4.616;2023-01-23T17:30:45;29.97;;;13.97;;
20772;SDS011;10546;50.674;4.616;2023-01-23T17:33:19;33.97;;;15.80;;
20772;SDS011;10546;50.674;4.616;2023-01-23T17:35:50;34.00;;;16.87;;
20772;SDS011;10546;50.674;4.616;2023-01-23T17:38:21;30.20;;;13.73;;
20772;SDS011;10546;50.674;4.616;2023-01-23T17:40:48;33.77;;;17.20;;
20772;SDS011;10546;50.674;4.616;2023-01-23T17:43:14;34.37;;;15.97;;
20772;SDS011;10546;50.674;4.616;2023-01-23T17:45:41;32.40;;;16.17;;
20772;SDS011;10546;50.674;4.616;2023-01-23T17:48:12;33.87;;;15.97;;
20772;SDS011;10546;50.674;4.616;2023-01-23T17:50:41;36.27;;;17.97;;
20772;SDS011;10546;50.674;4.616;2023-01-23T17:53:15;36.40;;;17.07;;
20772;SDS011;10546;50.674;4.616;2023-01-23T17:55:42;32.77;;;16.87;;
20772;SDS011;10546;50.674;4.616;2023-01-23T17:58:12;33.30;;;15.13;;
20772;SDS011;10546;50.674;4.616;2023-01-23T18:00:37;37.60;;;18.67;;
20772;SDS011;10546;50.674;4.616;2023-01-23T18:03:04;41.13;;;17.70;;
20772;SDS011;10546;50.674;4.616;2023-01-23T18:05:32;48.27;;;21.17;;
20772;SDS011;10546;50.674;4.616;2023-01-23T18:07:57;48.73;;;22.40;;
20772;SDS011;10546;50.674;4.616;2023-01-23T18:10:23;40.53;;;19.90;;
20772;SDS011;10546;50.674;4.616;2023-01-23T18:15:25;37.30;;;18.30;;
20772;SDS011;10546;50.674;4.616;2023-01-23T18:20:29;45.47;;;20.00;;
20772;SDS011;10546;50.674;4.616;2023-01-23T18:22:57;48.87;;;22.57;;
20772;SDS011;10546;50.674;4.616;2023-01-23T18:25:23;42.73;;;20.77;;
20772;SDS011;10546;50.674;4.616;2023-01-23T18:27:55;46.00;;;20.83;;
20772;SDS011;10546;50.674;4.616;2023-01-23T18:38:52;42.67;;;20.03;;
20772;SDS011;10546;50.674;4.616;2023-01-23T18:41:47;54.60;;;26.43;;
20772;SDS011;10546;50.674;4.616;2023-01-23T18:44:30;42.37;;;20.73;;
20772;SDS011;10546;50.674;4.616;2023-01-23T18:46:58;40.33;;;18.50;;
20772;SDS011;10546;50.674;4.616;2023-01-23T18:49:29;42.70;;;20.33;;
20772;SDS011;10546;50.674;4.616;2023-01-23T18:52:15;38.70;;;18.47;;
20772;SDS011;10546;50.674;4.616;2023-01-23T18:55:01;35.87;;;18.33;;
20772;SDS011;10546;50.674;4.616;2023-01-23T18:58:02;40.57;;;20.97;;
20772;SDS011;10546;50.674;4.616;2023-01-23T19:00:43;37.40;;;18.63;;
20772;SDS011;10546;50.674;4.616;2023-01-23T19:03:17;37.00;;;17.67;;
20772;SDS011;10546;50.674;4.616;2023-01-23T19:05:48;36.73;;;18.63;;
20772;SDS011;10546;50.674;4.616;2023-01-23T19:08:32;41.60;;;20.47;;
20772;SDS011;10546;50.674;4.616;2023-01-23T19:11:00;43.00;;;22.03;;
20772;SDS011;10546;50.674;4.616;2023-01-23T19:13:38;38.50;;;19.17;;
20772;SDS011;10546;50.674;4.616;2023-01-23T19:18:44;35.17;;;17.63;;
20772;SDS011;10546;50.674;4.616;2023-01-23T19:23:57;32.60;;;15.53;;
20772;SDS011;10546;50.674;4.616;2023-01-23T19:26:31;37.63;;;18.87;;
20772;SDS011;10546;50.674;4.616;2023-01-23T19:28:58;43.33;;;21.27;;
20772;SDS011;10546;50.674;4.616;2023-01-23T19:31:31;33.53;;;16.33;;
20772;SDS011;10546;50.674;4.616;2023-01-23T19:33:59;42.03;;;21.60;;
20772;SDS011;10546;50.674;4.616;2023-01-23T19:36:26;36.50;;;20.13;;
20772;SDS011;10546;50.674;4.616;2023-01-23T19:38:53;34.07;;;17.83;;
20772;SDS011;10546;50.674;4.616;2023-01-23T19:41:25;33.13;;;18.13;;
20772;SDS011;10546;50.674;4.616;2023-01-23T19:43:59;38.07;;;19.50;;
20772;SDS011;10546;50.674;4.616;2023-01-23T19:46:28;35.37;;;16.20;;
20772;SDS011;10546;50.674;4.616;2023-01-23T19:48:56;35.87;;;15.33;;
20772;SDS011;10546;50.674;4.616;2023-01-23T19:51:22;32.87;;;15.50;;
20772;SDS011;10546;50.674;4.616;2023-01-23T19:53:50;28.83;;;15.40;;
20772;SDS011;10546;50.674;4.616;2023-01-23T19:56:17;33.60;;;17.37;;
20772;SDS011;10546;50.674;4.616;2023-01-23T19:58:43;26.77;;;13.33;;
20772;SDS011;10546;50.674;4.616;2023-01-23T20:04:01;29.73;;;14.50;;
20772;SDS011;10546;50.674;4.616;2023-01-23T20:06:28;35.90;;;17.90;;
20772;SDS011;10546;50.674;4.616;2023-01-23T20:08:55;34.43;;;18.03;;
20772;SDS011;10546;50.674;4.616;2023-01-23T20:11:21;34.20;;;18.13;;
20772;SDS011;10546;50.674;4.616;2023-01-23T20:13:46;32.80;;;17.30;;
20772;SDS011;10546;50.674;4.616;2023-01-23T20:16:16;41.43;;;21.07;;
20772;SDS011;10546;50.674;4.616;2023-01-23T20:18:44;32.87;;;16.90;;
20772;SDS011;10546;50.674;4.616;2023-01-23T20:21:12;52.30;;;23.90;;
20772;SDS011;10546;50.674;4.616;2023-01-23T20:23:38;38.23;;;18.90;;
20772;SDS011;10546;50.674;4.616;2023-01-23T20:26:04;31.03;;;15.17;;
20772;SDS011;10546;50.674;4.616;2023-01-23T20:28:30;26.47;;;12.70;;
20772;SDS011;10546;50.674;4.616;2023-01-23T20:30:56;34.33;;;16.67;;
20772;SDS011;10546;50.674;4.616;2023-01-23T20:33:26;31.93;;;15.23;;
20772;SDS011;10546;50.674;4.616;2023-01-23T20:35:52;38.07;;;19.27;;
20772;SDS011;10546;50.674;4.616;2023-01-23T20:38:18;39.40;;;19.20;;
20772;SDS011;10546;50.674;4.616;2023-01-23T20:40:45;35.03;;;17.53;;
20772;SDS011;10546;50.674;4.616;2023-01-23T20:43:11;34.60;;;16.80;;
20772;SDS011;10546;50.674;4.616;2023-01-23T20:45:43;39.20;;;17.67;;
20772;SDS011;10546;50.674;4.616;2023-01-23T20:48:10;39.90;;;18.53;;
20772;SDS011;10546;50.674;4.616;2023-01-23T20:50:35;31.47;;;16.50;;
20772;SDS011;10546;50.674;4.616;2023-01-23T20:53:01;42.37;;;19.30;;
20772;SDS011;10546;50.674;4.616;2023-01-23T20:55:50;40.33;;;19.87;;
20772;SDS011;10546;50.674;4.616;2023-01-23T20:58:17;42.37;;;20.07;;
20772;SDS011;10546;50.674;4.616;2023-01-23T21:01:01;37.83;;;17.87;;
20772;SDS011;10546;50.674;4.616;2023-01-23T21:03:26;42.30;;;21.63;;
20772;SDS011;10546;50.674;4.616;2023-01-23T21:05:52;39.17;;;18.80;;
20772;SDS011;10546;50.674;4.616;2023-01-23T21:08:18;43.90;;;22.20;;
20772;SDS011;10546;50.674;4.616;2023-01-23T21:10:43;51.67;;;23.50;;
20772;SDS011;10546;50.674;4.616;2023-01-23T21:13:09;44.50;;;21.93;;
20772;SDS011;10546;50.674;4.616;2023-01-23T21:15:39;42.07;;;21.60;;
20772;SDS011;10546;50.674;4.616;2023-01-23T21:18:05;34.47;;;16.90;;
20772;SDS011;10546;50.674;4.616;2023-01-23T21:20:31;47.87;;;23.47;;
20772;SDS011;10546;50.674;4.616;2023-01-23T21:22:56;41.23;;;19.50;;
20772;SDS011;10546;50.674;4.616;2023-01-23T21:25:22;46.03;;;19.07;;
20772;SDS011;10546;50.674;4.616;2023-01-23T21:27:48;37.93;;;19.93;;
20772;SDS011;10546;50.674;4.616;2023-01-23T21:30:13;48.40;;;22.27;;
20772;SDS011;10546;50.674;4.616;2023-01-23T21:32:39;41.03;;;20.57;;
20772;SDS011;10546;50.674;4.616;2023-01-23T21:35:05;47.80;;;21.63;;
20772;SDS011;10546;50.674;4.616;2023-01-23T21:37:30;47.07;;;20.93;;
20772;SDS011;10546;50.674;4.616;2023-01-23T21:39:56;42.67;;;20.73;;
20772;SDS011;10546;50.674;4.616;2023-01-23T21:42:22;36.33;;;17.17;;
20772;SDS011;10546;50.674;4.616;2023-01-23T21:44:47;51.77;;;23.50;;
20772;SDS011;10546;50.674;4.616;2023-01-23T21:47:16;51.70;;;24.30;;
20772;SDS011;10546;50.674;4.616;2023-01-23T21:49:43;38.33;;;18.13;;
20772;SDS011;10546;50.674;4.616;2023-01-23T21:52:09;37.73;;;18.67;;
20772;SDS011;10546;50.674;4.616;2023-01-23T21:54:35;41.87;;;19.00;;
20772;SDS011;10546;50.674;4.616;2023-01-23T21:57:00;41.77;;;20.07;;
20772;SDS011;10546;50.674;4.616;2023-01-23T21:59:26;42.57;;;19.20;;
20772;SDS011;10546;50.674;4.616;2023-01-23T22:01:52;47.43;;;23.17;;
20772;SDS011;10546;50.674;4.616;2023-01-23T22:04:18;43.00;;;20.17;;
20772;SDS011;10546;50.674;4.616;2023-01-23T22:06:50;45.53;;;21.83;;
20772;SDS011;10546;50.674;4.616;2023-01-23T22:09:17;41.77;;;19.20;;
20772;SDS011;10546;50.674;4.616;2023-01-23T22:11:44;41.37;;;19.97;;
20772;SDS011;10546;50.674;4.616;2023-01-23T22:14:11;42.87;;;20.83;;
20772;SDS011;10546;50.674;4.616;2023-01-23T22:16:37;45.70;;;20.77;;
20772;SDS011;10546;50.674;4.616;2023-01-23T22:19:02;41.63;;;19.43;;
20772;SDS011;10546;50.674;4.616;2023-01-23T22:21:28;42.83;;;20.90;;
20772;SDS011;10546;50.674;4.616;2023-01-23T22:23:53;40.20;;;19.60;;
20772;SDS011;10546;50.674;4.616;2023-01-23T22:26:19;37.73;;;18.03;;
20772;SDS011;10546;50.674;4.616;2023-01-23T22:28:45;40.50;;;19.43;;
20772;SDS011;10546;50.674;4.616;2023-01-23T22:31:12;40.90;;;19.07;;
20772;SDS011;10546;50.674;4.616;2023-01-23T22:33:39;34.00;;;16.20;;
20772;SDS011;10546;50.674;4.616;2023-01-23T22:36:08;30.57;;;14.97;;
20772;SDS011;10546;50.674;4.616;2023-01-23T22:38:37;32.20;;;16.00;;
20772;SDS011;10546;50.674;4.616;2023-01-23T22:41:03;40.83;;;19.93;;
20772;SDS011;10546;50.674;4.616;2023-01-23T22:43:30;24.00;;;12.50;;
20772;SDS011;10546;50.674;4.616;2023-01-23T22:46:03;40.77;;;18.93;;
20772;SDS011;10546;50.674;4.616;2023-01-23T22:48:30;38.27;;;19.10;;
20772;SDS011;10546;50.674;4.616;2023-01-23T22:50:58;36.33;;;18.77;;
20772;SDS011;10546;50.674;4.616;2023-01-23T22:53:24;34.27;;;17.03;;
20772;SDS011;10546;50.674;4.616;2023-01-23T22:55:50;30.47;;;14.00;;
20772;SDS011;10546;50.674;4.616;2023-01-23T22:58:15;36.93;;;17.60;;
20772;SDS011;10546;50.674;4.616;2023-01-23T23:00:42;34.30;;;16.10;;
20772;SDS011;10546;50.674;4.616;2023-01-23T23:03:07;38.00;;;19.27;;
20772;SDS011;10546;50.674;4.616;2023-01-23T23:05:33;39.57;;;19.30;;
20772;SDS011;10546;50.674;4.616;2023-01-23T23:07:59;33.23;;;16.90;;
20772;SDS011;10546;50.674;4.616;2023-01-23T23:10:24;31.73;;;15.07;;
20772;SDS011;10546;50.674;4.616;2023-01-23T23:12:50;35.77;;;16.70;;
20772;SDS011;10546;50.674;4.616;2023-01-23T23:15:16;39.03;;;19.97;;
20772;SDS011;10546;50.674;4.616;2023-01-23T23:17:41;33.20;;;16.10;;
20772;SDS011;10546;50.674;4.616;2023-01-23T23:20:07;29.00;;;14.77;;
20772;SDS011;10546;50.674;4.616;2023-01-23T23:22:33;31.70;;;15.63;;